Time;durP1;ratioP1;P1;durP2;ratioP2;P2;SDS_P1;SDS_P2;PMS_P1;PMS_P2;Temp;Humidity;BMP_temperature;BMP_pressure;BME280_temperature;BME280_humidity;BME280_pressure;Samples;Min_cycle;Max_cycle;Signal;HPM_P1;HPM_P2
2022/04/07 00:04:09;;;;;;;2.13;0.50;;;;;;;19.13;36.27;99246.91;16141601;19;129886;-43
2022/04/07 00:09:31;;;;;;;2.38;0.40;;;;;;;19.10;36.55;99228.09;16137189;19;131767;-42
2022/04/07 00:14:53;;;;;;;1.85;0.45;;;;;;;19.08;36.51;99214.53;16141437;19;130924;-45
2022/04/07 00:20:14;;;;;;;2.30;0.40;;;;;;;19.06;36.41;99212.06;16143217;19;129257;-42
2022/04/07 00:25:36;;;;;;;6.60;0.60;;;;;;;19.02;36.62;99202.66;16141106;19;129531;-47
2022/04/07 00:30:58;;;;;;;1.50;0.65;;;;;;;19.02;36.47;99182.44;16141152;19;129003;-42
2022/04/07 00:36:20;;;;;;;2.88;0.68;;;;;;;19.01;36.23;99175.25;16141238;19;130336;-47
2022/04/07 00:41:42;;;;;;;3.15;1.00;;;;;;;18.98;36.28;99176.66;16137821;19;129974;-42
2022/04/07 00:47:05;;;;;;;1.58;0.63;;;;;;;18.97;36.47;99168.63;16135433;19;130225;-43
2022/04/07 00:52:30;;;;;;;2.10;0.40;;;;;;;18.93;36.52;99151.78;16133507;19;129534;-43
2022/04/07 00:57:52;;;;;;;4.28;0.52;;;;;;;18.93;36.49;99146.22;16139444;19;129485;-42
2022/04/07 01:03:14;;;;;;;1.75;0.50;;;;;;;18.94;36.33;99135.97;16137518;19;129991;-42
2022/04/07 01:08:36;;;;;;;1.70;0.65;;;;;;;18.91;36.42;99115.22;16135442;19;129383;-42
2022/04/07 01:13:57;;;;;;;2.17;0.50;;;;;;;18.88;36.19;99116.63;16138145;19;129776;-42
2022/04/07 01:19:19;;;;;;;1.90;0.32;;;;;;;18.87;35.95;99108.59;16137251;19;130464;-42
2022/04/07 01:24:41;;;;;;;3.35;0.63;;;;;;;18.86;35.96;99091.16;16136633;19;130452;-46
2022/04/07 01:30:10;;;;;;;1.60;0.70;;;;;;;18.85;36.12;99074.81;16130122;19;129563;-43
2022/04/07 01:35:32;;;;;;;1.80;0.50;;;;;;;18.82;36.15;99079.00;16137423;19;129794;-45
2022/04/07 01:40:54;;;;;;;2.90;0.60;;;;;;;18.80;35.95;99064.59;16134868;19;131553;-48
2022/04/07 01:46:17;;;;;;;1.70;0.45;;;;;;;18.80;36.15;99052.72;16133679;19;132532;-42
2022/04/07 01:51:39;;;;;;;2.65;0.57;;;;;;;18.80;36.09;99036.09;16134893;19;129399;-42
2022/04/07 01:57:01;;;;;;;3.28;0.55;;;;;;;18.77;36.17;99032.78;16134102;19;129433;-42
2022/04/07 02:02:23;;;;;;;2.17;0.52;;;;;;;18.76;35.81;99028.34;16133371;19;129156;-42
2022/04/07 02:07:45;;;;;;;3.55;0.60;;;;;;;18.75;35.96;99017.59;16147673;19;129581;-51
2022/04/07 02:13:06;;;;;;;1.48;0.60;;;;;;;18.75;36.05;99007.31;16150675;19;129926;-45
2022/04/07 02:18:28;;;;;;;2.25;0.57;;;;;;;18.75;36.06;99003.72;16149796;19;129290;-41
2022/04/07 02:23:51;;;;;;;2.90;0.55;;;;;;;18.74;35.65;98993.78;16149775;19;130276;-42
2022/04/07 02:29:13;;;;;;;2.95;0.70;;;;;;;18.74;35.97;98979.91;16145162;19;130011;-43
2022/04/07 02:34:35;;;;;;;2.50;0.70;;;;;;;18.72;35.80;98984.91;16148383;19;129426;-42
2022/04/07 02:39:57;;;;;;;2.10;0.70;;;;;;;18.72;35.57;98969.13;16148397;19;129449;-41
2022/04/07 02:45:19;;;;;;;2.13;0.68;;;;;;;18.70;35.52;98960.31;16144536;19;129775;-42
2022/04/07 02:50:40;;;;;;;1.77;0.77;;;;;;;18.69;35.46;98958.66;16140552;19;129736;-42
2022/04/07 02:56:02;;;;;;;0.70;0.40;;;;;;;18.68;35.93;98951.47;16146609;19;129312;-42
2022/04/07 03:01:24;;;;;;;1.67;0.73;;;;;;;18.66;35.83;98919.63;16145633;19;130016;-42
2022/04/07 03:06:46;;;;;;;1.90;0.60;;;;;;;18.65;35.80;98913.25;16139506;19;129420;-44
2022/04/07 03:12:08;;;;;;;1.98;0.68;;;;;;;18.65;35.59;98901.34;16144679;19;129390;-46
2022/04/07 03:17:31;;;;;;;2.25;0.63;;;;;;;18.63;35.46;98904.41;16144367;19;129332;-42
2022/04/07 03:22:53;;;;;;;2.70;0.70;;;;;;;18.62;35.43;98900.00;16144145;19;128947;-41
2022/04/07 03:28:15;;;;;;;1.73;0.60;;;;;;;18.62;35.72;98894.47;16142470;19;129631;-46
2022/04/07 03:33:36;;;;;;;2.17;0.47;;;;;;;18.60;35.75;98880.09;16144521;19;129484;-42
2022/04/07 03:38:58;;;;;;;2.58;0.70;;;;;;;18.60;35.72;98871.78;16145136;19;130046;-42
2022/04/07 03:44:20;;;;;;;2.28;0.40;;;;;;;18.59;35.36;98850.72;16142284;19;130134;-44
2022/04/07 03:49:41;;;;;;;2.10;0.57;;;;;;;18.57;35.30;98828.09;16138752;19;129557;-47
2022/04/07 03:55:04;;;;;;;1.73;0.60;;;;;;;18.57;35.52;98817.81;16142977;19;129803;-43
2022/04/07 04:00:27;;;;;;;1.92;1.00;;;;;;;18.56;35.60;98798.75;16144249;19;129605;-41
2022/04/07 04:05:49;;;;;;;2.45;0.70;;;;;;;18.55;35.66;98786.00;16138214;19;130994;-44
2022/04/07 04:11:12;;;;;;;2.22;0.70;;;;;;;18.54;35.43;98773.28;16136388;19;129325;-44
2022/04/07 04:16:34;;;;;;;1.65;0.50;;;;;;;18.53;35.45;98774.41;16140794;19;130607;-42
2022/04/07 04:21:56;;;;;;;3.67;0.70;;;;;;;18.54;35.70;98762.22;16142687;19;130662;-42
2022/04/07 04:27:18;;;;;;;1.55;0.50;;;;;;;18.52;35.44;98736.75;16135877;19;129451;-44
2022/04/07 04:32:39;;;;;;;1.80;0.45;;;;;;;18.51;35.55;98724.03;16140225;19;130607;-41
2022/04/07 04:38:01;;;;;;;1.15;0.50;;;;;;;18.50;35.34;98725.16;16138911;19;129050;-44
2022/04/07 04:43:23;;;;;;;0.63;0.40;;;;;;;18.51;35.39;98718.50;16137792;19;130142;-46
2022/04/07 04:48:51;;;;;;;1.75;0.70;;;;;;;18.50;35.70;98700.22;16134085;19;130196;-43
2022/04/07 04:54:13;;;;;;;1.92;0.45;;;;;;;18.48;35.42;98683.09;16136895;19;130414;-42
2022/04/07 04:59:35;;;;;;;1.05;0.47;;;;;;;18.47;35.53;98662.91;16137494;19;132392;-49
2022/04/07 05:04:57;;;;;;;0.90;0.30;;;;;;;18.46;35.76;98639.91;16133845;19;129377;-42
2022/04/07 05:10:19;;;;;;;1.00;0.40;;;;;;;18.45;35.41;98632.75;16130901;19;129241;-43
2022/04/07 05:15:43;;;;;;;0.80;0.50;;;;;;;18.46;35.62;98623.31;16136567;19;128830;-41
2022/04/07 05:21:05;;;;;;;1.23;0.40;;;;;;;18.46;35.56;98609.47;16133356;19;130217;-45
2022/04/07 05:26:27;;;;;;;1.73;0.52;;;;;;;18.46;35.43;98583.75;16137179;19;129323;-46
2022/04/07 05:31:49;;;;;;;1.77;0.52;;;;;;;18.45;35.79;98560.78;16137746;19;129481;-44
2022/04/07 05:37:11;;;;;;;3.20;0.40;;;;;;;18.48;35.75;98541.91;16136829;19;129316;-43
2022/04/07 05:42:33;;;;;;;1.92;0.52;;;;;;;18.47;35.74;98518.94;16136863;19;129449;-42
2022/04/07 05:47:54;;;;;;;1.10;0.40;;;;;;;18.47;35.45;98491.25;16130477;19;129256;-41
2022/04/07 05:53:16;;;;;;;4.15;0.60;;;;;;;18.48;35.49;98503.13;16134562;19;130814;-42
2022/04/07 05:58:38;;;;;;;1.17;0.40;;;;;;;18.46;35.68;98476.56;16136631;19;129268;-47
2022/04/07 06:04:00;;;;;;;2.88;0.57;;;;;;;18.45;35.82;98458.34;16133153;19;129427;-43
2022/04/07 06:09:22;;;;;;;5.40;0.60;;;;;;;18.46;36.05;98440.59;16130587;19;129781;-43
2022/04/07 06:14:43;;;;;;;1.73;0.50;;;;;;;18.44;36.16;98426.25;16133250;19;129959;-42
2022/04/07 06:20:07;;;;;;;2.05;0.73;;;;;;;18.44;36.08;98419.88;16128776;19;130555;-42
2022/04/07 06:25:29;;;;;;;2.65;0.68;;;;;;;18.43;35.99;98401.63;16130201;19;130591;-44
2022/04/07 06:30:52;;;;;;;5.20;0.80;;;;;;;18.41;36.17;98382.56;16128168;19;129427;-44
2022/04/07 06:36:13;;;;;;;2.42;0.63;;;;;;;18.38;35.80;98360.19;16134333;19;129971;-43
2022/04/07 06:41:35;;;;;;;3.35;0.80;;;;;;;18.37;35.70;98315.06;16129045;19;128851;-42
2022/04/07 06:46:57;;;;;;;2.67;0.60;;;;;;;18.37;35.79;98303.19;16130308;19;129332;-42
2022/04/07 06:52:19;;;;;;;2.28;0.70;;;;;;;18.36;35.75;98291.28;16145201;19;129004;-44
2022/04/07 06:57:52;;;;;;;1.02;0.47;;;;;;;18.35;35.87;98272.22;16149198;19;128879;-41
2022/04/07 07:03:15;;;;;;;2.38;0.80;;;;;;;18.34;35.82;98259.50;16148180;19;130088;-44
2022/04/07 07:08:37;;;;;;;1.83;0.55;;;;;;;18.33;36.22;98247.63;16144910;19;129248;-46
2022/04/07 07:13:59;;;;;;;1.00;0.43;;;;;;;18.32;35.99;98226.63;16147596;19;129561;-46
2022/04/07 07:19:26;;;;;;;2.03;0.50;;;;;;;18.32;35.94;98223.84;16147222;19;129013;-45
2022/04/07 07:24:48;;;;;;;2.47;0.80;;;;;;;18.31;35.89;98225.78;16146011;19;129116;-47
2022/04/07 07:30:12;;;;;;;2.00;0.70;;;;;;;18.30;35.92;98193.69;16143606;19;129453;-42
2022/04/07 07:35:33;;;;;;;0.90;0.40;;;;;;;18.29;36.24;98211.44;16146382;19;130349;-41
2022/04/07 07:40:55;;;;;;;3.55;0.80;;;;;;;18.29;35.84;98186.53;16143997;19;129746;-46
2022/04/07 07:46:17;;;;;;;2.47;0.60;;;;;;;18.26;36.35;98203.78;16140886;19;129879;-43
2022/04/07 07:51:39;;;;;;;2.22;0.70;;;;;;;18.28;35.92;98314.16;16139145;19;128838;-42
2022/04/07 07:57:01;;;;;;;4.28;0.77;;;;;;;18.24;36.07;98322.25;16141232;19;129309;-45
2022/04/07 08:02:22;;;;;;;1.30;0.50;;;;;;;18.23;36.50;98317.84;16141878;19;129048;-43
2022/04/07 08:07:44;;;;;;;0.82;0.40;;;;;;;18.20;36.39;98320.41;16139618;19;129154;-43
2022/04/07 08:13:06;;;;;;;0.68;0.40;;;;;;;18.19;36.46;98311.28;16145533;19;130385;-42
2022/04/07 08:18:28;;;;;;;2.70;0.25;;;;;;;18.19;36.54;98302.97;16143144;19;130253;-48
2022/04/07 08:23:50;;;;;;;2.25;0.35;;;;;;;18.21;36.57;98313.75;16143702;19;129047;-43
2022/04/07 08:29:12;;;;;;;0.85;0.22;;;;;;;18.23;36.07;98308.72;16139637;19;129739;-44
2022/04/07 08:34:35;;;;;;;0.68;0.30;;;;;;;18.24;36.45;98310.34;16142812;19;129560;-45
2022/04/07 08:39:57;;;;;;;1.48;0.50;;;;;;;18.27;36.17;98309.75;16135152;19;130279;-44
2022/04/07 08:45:21;;;;;;;0.82;0.35;;;;;;;18.27;36.21;98320.81;16140364;19;129098;-45
2022/04/07 08:50:44;;;;;;;0.55;0.20;;;;;;;18.27;35.99;98334.66;16138962;19;129874;-45
2022/04/07 08:56:08;;;;;;;2.20;0.55;;;;;;;18.27;35.91;98327.19;16141413;19;129222;-42
2022/04/07 09:01:30;;;;;;;0.73;0.40;;;;;;;18.28;36.49;98322.47;16141201;19;130306;-43
2022/04/07 09:06:55;;;;;;;0.88;0.30;;;;;;;18.29;36.22;98315.78;16137371;19;129363;-44
2022/04/07 09:12:23;;;;;;;0.40;0.23;;;;;;;18.30;35.99;98311.91;16133491;19;130496;-41
2022/04/07 09:17:54;;;;;;;2.28;0.38;;;;;;;18.34;36.24;98315.69;16136299;19;129200;-43
2022/04/07 09:23:17;;;;;;;0.60;0.20;;;;;;;18.38;36.01;98338.84;16139018;19;129188;-43
2022/04/07 09:28:39;;;;;;;0.20;0.10;;;;;;;18.44;35.83;98347.91;16138479;19;129123;-44
2022/04/07 09:34:02;;;;;;;0.57;0.22;;;;;;;18.51;35.98;98341.97;16139741;19;128872;-42
2022/04/07 09:39:24;;;;;;;0.45;0.20;;;;;;;18.57;35.95;98357.34;16139921;19;128901;-42
2022/04/07 09:44:51;;;;;;;0.40;0.20;;;;;;;18.64;35.70;98370.78;16136255;19;129019;-42
2022/04/07 09:50:24;;;;;;;1.77;0.20;;;;;;;18.68;35.46;98380.09;16137095;19;129416;-42
2022/04/07 09:55:45;;;;;;;2.03;0.25;;;;;;;18.69;35.67;98382.56;16134002;19;129059;-44
2022/04/07 10:01:08;;;;;;;0.57;0.20;;;;;;;18.69;35.80;98378.97;16137094;19;129242;-46
2022/04/07 10:06:32;;;;;;;0.68;0.25;;;;;;;18.68;35.52;98363.47;16132929;19;129405;-42
2022/04/07 10:11:54;;;;;;;1.38;0.40;;;;;;;18.66;35.73;98385.94;16130190;19;129993;-42
2022/04/07 10:17:17;;;;;;;0.68;0.30;;;;;;;18.67;35.24;98397.84;16136230;19;129321;-45
2022/04/07 10:22:57;;;;;;;1.33;0.38;;;;;;;18.67;35.47;98400.59;16135640;19;128897;-42
2022/04/07 10:28:19;;;;;;;1.15;0.40;;;;;;;18.68;35.67;98399.47;16149289;19;132281;-43
2022/04/07 10:33:46;;;;;;;1.27;0.30;;;;;;;18.68;35.26;98408.63;16148057;19;129075;-45
2022/04/07 10:39:14;;;;;;;0.63;0.30;;;;;;;18.69;35.42;98415.81;16145798;19;130595;-43
2022/04/07 10:44:42;;;;;;;0.60;0.20;;;;;;;18.68;35.09;98425.25;16145978;19;129194;-42
2022/04/07 10:50:04;;;;;;;1.05;0.35;;;;;;;18.68;35.11;98419.69;16143474;19;129628;-46
2022/04/07 10:55:26;;;;;;;1.60;0.30;;;;;;;18.68;35.21;98414.16;16147734;19;130408;-47
2022/04/07 11:00:48;;;;;;;0.50;0.20;;;;;;;18.68;35.06;98441.84;16147148;19;129550;-43
2022/04/07 11:06:11;;;;;;;1.58;0.32;;;;;;;18.70;35.02;98434.06;16143236;19;130058;-42
2022/04/07 11:11:52;;;;;;;2.75;0.60;;;;;;;18.72;34.93;98453.13;16140564;19;129372;-45
2022/04/07 11:17:32;;;;;;;2.30;0.52;;;;;;;18.71;35.07;98446.75;16144656;19;129217;-43
2022/04/07 11:23:01;;;;;;;1.77;0.50;;;;;;;18.73;35.22;98472.19;16146549;19;129619;-42
2022/04/07 11:28:24;;;;;;;9.90;2.03;;;;;;;18.71;34.86;98485.53;16140814;19;129824;-42
2022/04/07 11:33:46;;;;;;;6.57;1.10;;;;;;;18.71;34.95;98488.31;16142403;19;129340;-44
2022/04/07 11:39:10;;;;;;;4.78;1.60;;;;;;;18.73;35.30;98499.91;16142050;19;130921;-45
2022/04/07 11:44:32;;;;;;;5.78;1.40;;;;;;;18.71;35.10;98502.16;16140223;19;129918;-45
2022/04/07 11:49:54;;;;;;;12.52;5.13;;;;;;;18.74;35.62;98518.16;16138588;19;130137;-45
2022/04/07 11:55:29;;;;;;;12.55;4.97;;;;;;;18.85;35.54;98526.28;16139026;19;129910;-46
2022/04/07 12:00:51;;;;;;;13.82;4.20;;;;;;;18.99;35.31;98545.69;16144365;19;131147;-49
2022/04/07 12:06:13;;;;;;;8.77;3.47;;;;;;;19.26;35.25;98558.75;16138933;19;129118;-48
2022/04/07 12:11:39;;;;;;;9.80;3.42;;;;;;;19.60;34.99;98554.72;16137465;19;129713;-44
2022/04/07 12:17:01;;;;;;;8.60;3.00;;;;;;;19.93;34.11;98573.97;16143214;19;128962;-44
2022/04/07 12:22:30;;;;;;;6.00;2.90;;;;;;;20.23;33.64;98579.16;16141372;19;129405;-45
2022/04/07 12:28:09;;;;;;;8.18;3.10;;;;;;;20.47;33.44;98587.16;16140237;19;129413;-44
2022/04/07 12:33:47;;;;;;;7.82;2.75;;;;;;;20.67;33.32;98596.94;16134846;19;132733;-45
2022/04/07 12:39:12;;;;;;;5.28;1.95;;;;;;;20.79;33.17;98598.34;16141805;19;130690;-46
2022/04/07 12:44:35;;;;;;;2.47;1.80;;;;;;;20.77;32.81;98612.56;16140215;19;130334;-44
2022/04/07 12:50:01;;;;;;;7.45;2.30;;;;;;;20.72;33.01;98609.88;16136227;19;130411;-45
2022/04/07 12:55:31;;;;;;;;;;;;;;;20.59;33.08;98620.75;16140753;19;130510;-45
2022/04/07 13:00:59;;;;;;;5.72;2.22;;;;;;;20.54;32.85;98620.88;16138924;19;130317;-43
2022/04/07 13:06:21;;;;;;;6.78;2.08;;;;;;;20.42;33.40;98609.53;16135821;19;129105;-47
2022/04/07 13:11:43;;;;;;;7.15;2.10;;;;;;;20.33;33.20;98647.47;16132586;19;130199;-42
2022/04/07 13:17:05;;;;;;;7.13;1.92;;;;;;;20.20;33.47;98626.97;16139026;19;129384;-43
2022/04/07 13:22:33;;;;;;;6.93;2.20;;;;;;;20.13;33.50;98653.19;16134395;19;131961;-43
2022/04/07 13:27:55;;;;;;;4.28;2.13;;;;;;;20.06;33.30;98644.47;16135145;19;129795;-46
2022/04/07 13:33:19;;;;;;;3.15;1.67;;;;;;;20.01;33.38;98660.44;16126751;19;130219;-43
2022/04/07 13:38:41;;;;;;;9.57;1.92;;;;;;;19.93;33.36;98662.78;16137454;19;130010;-42
2022/04/07 13:44:03;;;;;;;5.57;1.77;;;;;;;19.84;33.68;98672.94;16134244;19;129232;-44
2022/04/07 13:49:25;;;;;;;6.50;1.92;;;;;;;19.79;33.54;98667.50;16133546;19;129558;-42
2022/04/07 13:54:47;;;;;;;5.90;1.83;;;;;;;19.73;33.60;98671.50;16135150;19;129307;-43
2022/04/07 14:00:09;;;;;;;3.00;1.20;;;;;;;19.64;33.57;98666.69;16142371;19;129634;-42
2022/04/07 14:05:31;;;;;;;5.03;1.75;;;;;;;19.61;33.76;98661.75;16149127;19;132266;-43
2022/04/07 14:10:54;;;;;;;3.05;1.42;;;;;;;19.55;33.58;98656.63;16146675;19;129364;-45
2022/04/07 14:16:16;;;;;;;4.50;1.75;;;;;;;19.49;33.66;98680.84;16150190;19;129512;-48
2022/04/07 14:21:39;;;;;;;3.10;1.30;;;;;;;19.45;33.25;98685.34;16151232;19;132539;-45
2022/04/07 14:27:01;;;;;;;7.72;1.80;;;;;;;19.42;33.70;98702.63;16146603;19;129415;-47
2022/04/07 14:32:23;;;;;;;3.33;1.42;;;;;;;19.37;33.36;98706.31;16144246;19;129188;-43
2022/04/07 14:37:45;;;;;;;4.25;1.40;;;;;;;19.35;33.15;98714.94;16146080;19;130718;-43
2022/04/07 14:43:09;;;;;;;5.50;1.38;;;;;;;19.32;33.51;98723.84;16147843;19;129174;-43
2022/04/07 14:48:31;;;;;;;9.88;1.50;;;;;;;19.30;33.37;98716.97;16141777;19;129659;-48
2022/04/07 14:53:53;;;;;;;4.38;1.40;;;;;;;19.26;33.61;98700.13;16144196;19;129366;-43
2022/04/07 14:59:15;;;;;;;5.55;1.33;;;;;;;19.22;33.48;98715.72;16147951;19;129894;-42
2022/04/07 15:04:37;;;;;;;3.75;1.35;;;;;;;19.19;33.22;98717.13;16147760;19;129865;-41
2022/04/07 15:09:58;;;;;;;4.60;1.33;;;;;;;19.17;33.52;98737.97;16144349;19;130634;-43
2022/04/07 15:15:20;;;;;;;5.95;1.42;;;;;;;19.14;33.12;98719.16;16142830;19;130987;-43
2022/04/07 15:20:44;;;;;;;4.18;1.45;;;;;;;19.14;32.98;98722.75;16144349;19;128974;-42
2022/04/07 15:26:05;;;;;;;3.40;1.30;;;;;;;19.18;33.22;98739.63;16143114;19;130008;-43
2022/04/07 15:31:27;;;;;;;4.55;1.65;;;;;;;19.30;32.73;98744.69;16141381;19;129409;-46
2022/04/07 15:36:49;;;;;;;6.13;1.75;;;;;;;19.46;32.67;98764.66;16143875;19;129773;-45
2022/04/07 15:42:11;;;;;;;9.65;1.70;;;;;;;19.63;32.73;98766.88;16141748;19;130579;-42
2022/04/07 15:47:33;;;;;;;5.40;1.63;;;;;;;19.75;32.30;98758.88;16134671;19;129513;-42
2022/04/07 15:52:55;;;;;;;4.00;1.40;;;;;;;19.86;32.04;98786.41;16137465;19;129810;-46
2022/04/07 15:58:17;;;;;;;8.32;1.90;;;;;;;19.94;32.26;98780.13;16142115;19;129452;-42
2022/04/07 16:03:38;;;;;;;5.18;1.85;;;;;;;20.05;32.12;98786.34;16143553;19;128960;-42
2022/04/07 16:09:06;;;;;;;4.60;1.85;;;;;;;20.11;32.60;98796.22;16141939;19;130158;-43
2022/04/07 16:14:28;;;;;;;8.13;1.92;;;;;;;20.17;32.48;98822.75;16142170;19;129255;-45
2022/04/07 16:19:50;;;;;;;8.20;2.08;;;;;;;20.21;32.16;98823.75;16141733;19;129061;-42
2022/04/07 16:25:12;;;;;;;6.18;1.80;;;;;;;20.26;32.07;98842.28;16134338;19;130266;-43
2022/04/07 16:30:36;;;;;;;6.05;1.98;;;;;;;20.25;32.42;98841.47;16141436;19;130539;-42
2022/04/07 16:35:58;;;;;;;6.43;2.05;;;;;;;20.24;32.50;98861.22;16164416;19;129485;-42
2022/04/07 16:41:20;;;;;;;5.40;1.70;;;;;;;20.26;32.26;98864.47;16213231;19;129533;-41
2022/04/07 16:46:42;;;;;;;6.10;1.85;;;;;;;20.25;32.46;98874.78;16206266;19;129391;-44
2022/04/07 16:52:04;;;;;;;6.18;2.03;;;;;;;20.23;32.17;98877.03;16208241;19;128561;-41
2022/04/07 16:57:25;;;;;;;4.80;1.73;;;;;;;20.18;32.49;98868.81;16210937;19;128587;-41
2022/04/07 17:02:47;;;;;;;7.65;2.30;;;;;;;20.12;32.27;98870.03;16208539;19;128603;-45
2022/04/07 17:08:09;;;;;;;6.55;2.10;;;;;;;20.02;32.46;98890.47;16208066;19;128549;-43
2022/04/07 17:13:32;;;;;;;4.25;1.60;;;;;;;19.94;32.94;98918.91;16200923;19;128444;-40
2022/04/07 17:18:54;;;;;;;13.93;2.05;;;;;;;19.87;32.68;98913.75;16202606;19;129820;-42
2022/04/07 17:24:17;;;;;;;8.65;2.05;;;;;;;19.81;33.52;98915.78;16205792;19;129354;-42
2022/04/07 17:29:39;;;;;;;7.68;1.75;;;;;;;19.89;33.34;98944.78;16137649;19;130293;-42
2022/04/07 17:35:01;;;;;;;14.70;1.85;;;;;;;20.04;33.40;98948.47;16137587;19;129488;-46
2022/04/07 17:40:22;;;;;;;9.60;2.17;;;;;;;20.23;33.13;98952.00;16136452;19;129504;-42
2022/04/07 17:45:45;;;;;;;7.50;1.60;;;;;;;20.42;33.00;98957.47;16133822;19;128904;-43
2022/04/07 17:51:06;;;;;;;6.25;1.75;;;;;;;20.54;32.95;98965.31;16134571;19;130006;-42
2022/04/07 17:56:28;;;;;;;6.07;1.42;;;;;;;20.62;32.85;98982.41;16135555;19;130784;-43
2022/04/07 18:01:50;;;;;;;7.13;1.58;;;;;;;20.62;32.66;99010.19;16136120;19;129039;-43
2022/04/07 18:07:13;;;;;;;6.85;1.80;;;;;;;20.59;32.82;98979.09;16132878;19;129213;-45
2022/04/07 18:12:37;;;;;;;7.70;1.55;;;;;;;20.55;32.47;99022.53;16131562;19;129196;-47
2022/04/07 18:17:58;;;;;;;8.05;1.70;;;;;;;20.50;32.90;99030.94;16132490;19;129528;-44
2022/04/07 18:23:20;;;;;;;7.53;1.70;;;;;;;20.43;32.52;99020.22;16124748;19;129527;-42
2022/04/07 18:28:42;;;;;;;5.00;1.40;;;;;;;20.39;32.50;99058.06;16128300;19;129411;-45
2022/04/07 18:34:10;;;;;;;5.45;1.23;;;;;;;20.31;32.58;99067.09;16120088;19;130540;-43
2022/04/07 18:39:36;;;;;;;6.35;1.35;;;;;;;20.24;32.28;99084.16;16128212;19;129338;-45
2022/04/07 18:44:58;;;;;;;4.40;1.23;;;;;;;20.21;32.40;99095.03;16129242;19;129329;-46
2022/04/07 18:50:21;;;;;;;6.78;1.67;;;;;;;20.29;32.22;99089.63;16145434;19;130175;-44
2022/04/07 18:55:43;;;;;;;5.93;1.80;;;;;;;20.43;31.99;99100.78;16146426;19;130651;-42
2022/04/07 19:01:04;;;;;;;5.40;1.42;;;;;;;20.58;31.92;99118.31;16142993;19;130286;-46
2022/04/07 19:06:26;;;;;;;6.03;1.50;;;;;;;20.71;31.37;99144.50;16138695;19;129715;-44
2022/04/07 19:11:48;;;;;;;5.82;1.55;;;;;;;20.84;31.59;99160.41;16140509;19;129981;-41
2022/04/07 19:17:10;;;;;;;9.25;1.83;;;;;;;20.96;31.05;99187.75;16146446;19;130142;-46
2022/04/07 19:22:33;;;;;;;3.88;1.00;;;;;;;21.08;31.41;99194.78;16146039;19;129428;-45
2022/04/07 19:27:54;;;;;;;6.07;1.48;;;;;;;21.16;30.84;99189.34;16144553;19;129716;-42
2022/04/07 19:33:16;;;;;;;3.75;1.13;;;;;;;21.24;30.91;99203.66;16134297;19;129813;-40
2022/04/07 19:38:38;;;;;;;3.92;1.00;;;;;;;21.35;31.38;99199.56;16142415;19;131087;-43
2022/04/07 19:44:00;;;;;;;6.10;1.42;;;;;;;21.42;30.80;99199.97;16138976;19;129256;-47
2022/04/07 19:49:23;;;;;;;3.78;1.17;;;;;;;21.49;31.04;99246.88;16138886;19;130100;-44
2022/04/07 19:54:44;;;;;;;5.57;1.30;;;;;;;21.48;31.13;99270.25;16137397;19;128926;-41
2022/04/07 20:00:09;;;;;;;4.68;1.30;;;;;;;21.43;31.04;99279.50;16141446;19;129885;-42
2022/04/07 20:05:31;;;;;;;5.00;1.48;;;;;;;21.38;31.43;99304.66;16139580;19;129238;-42
2022/04/07 20:10:52;;;;;;;5.10;1.50;;;;;;;21.29;31.64;99343.47;16138976;19;129266;-44
2022/04/07 20:16:14;;;;;;;4.40;1.35;;;;;;;21.12;31.49;99330.09;16139308;19;129828;-43
2022/04/07 20:21:37;;;;;;;5.25;1.60;;;;;;;20.97;31.39;99347.84;16140267;19;128992;-43
2022/04/07 20:27:00;;;;;;;7.85;1.70;;;;;;;20.84;31.26;99363.31;16140123;19;130093;-42
2022/04/07 20:32:22;;;;;;;4.65;1.45;;;;;;;20.72;31.64;99393.47;16136697;19;130540;-44
2022/04/07 20:37:44;;;;;;;8.05;1.65;;;;;;;20.60;31.98;99408.63;16138545;19;129248;-44
2022/04/07 20:43:06;;;;;;;5.05;1.10;;;;;;;20.51;31.69;99420.66;16132867;19;129736;-46
2022/04/07 20:48:27;;;;;;;4.20;1.20;;;;;;;20.40;31.98;99431.91;16128027;19;129779;-43
2022/04/07 20:53:49;;;;;;;4.18;1.10;;;;;;;20.32;32.11;99443.66;16135167;19;129297;-43
2022/04/07 20:59:17;;;;;;;4.35;1.15;;;;;;;20.22;32.01;99433.47;16134620;19;129373;-43
2022/04/07 21:04:42;;;;;;;2.72;0.90;;;;;;;20.17;32.35;99443.81;16137593;19;129805;-45
2022/04/07 21:10:04;;;;;;;3.28;1.05;;;;;;;20.06;32.41;99465.31;16134384;19;129298;-41
2022/04/07 21:15:26;;;;;;;3.42;1.23;;;;;;;19.99;32.63;99473.94;16131098;19;129547;-45
2022/04/07 21:20:48;;;;;;;2.75;1.00;;;;;;;19.92;32.66;99479.84;16134360;19;129222;-47
2022/04/07 21:26:10;;;;;;;4.05;0.90;;;;;;;19.87;32.35;99501.25;16133296;19;129338;-44
2022/04/07 21:31:31;;;;;;;3.10;0.90;;;;;;;19.83;32.81;99523.19;16130785;19;130040;-48
2022/04/07 21:36:53;;;;;;;4.93;0.93;;;;;;;19.78;32.75;99542.66;16132805;19;129677;-47
2022/04/07 21:42:15;;;;;;;3.20;1.00;;;;;;;19.74;32.49;99547.13;16133986;19;129779;-45
2022/04/07 21:47:37;;;;;;;3.58;1.00;;;;;;;19.67;32.78;99564.06;16130820;19;129744;-47
2022/04/07 21:52:58;;;;;;;4.45;0.80;;;;;;;19.61;32.33;99568.84;16132682;19;129233;-42
2022/04/07 21:58:20;;;;;;;3.30;0.75;;;;;;;19.56;32.41;99585.53;16134741;19;130214;-46
2022/04/07 22:03:42;;;;;;;1.98;0.90;;;;;;;19.50;32.77;99593.03;16135332;19;130564;-47
2022/04/07 22:09:04;;;;;;;2.38;0.85;;;;;;;19.46;32.80;99594.72;16129224;19;130067;-43
2022/04/07 22:14:26;;;;;;;1.40;0.60;;;;;;;19.45;32.80;99606.06;16127063;19;129268;-44
2022/04/07 22:19:48;;;;;;;2.78;0.70;;;;;;;19.43;32.56;99619.41;16136178;19;129571;-45
2022/04/07 22:25:09;;;;;;;3.03;0.70;;;;;;;19.40;32.54;99640.22;16149223;19;129706;-42
2022/04/07 22:30:31;;;;;;;2.10;0.77;;;;;;;19.36;32.67;99659.38;16148640;19;129737;-42
2022/04/07 22:35:53;;;;;;;3.60;1.00;;;;;;;19.32;32.61;99674.91;16144001;19;129783;-46
2022/04/07 22:41:15;;;;;;;1.73;0.57;;;;;;;19.27;32.35;99682.41;16147428;19;129510;-45
2022/04/07 22:46:37;;;;;;;0.93;0.50;;;;;;;19.24;32.35;99694.88;16146846;19;130284;-44
2022/04/07 22:52:00;;;;;;;1.88;0.40;;;;;;;19.22;32.52;99716.50;16146275;19;129053;-43
2022/04/07 22:57:21;;;;;;;1.52;0.55;;;;;;;19.20;32.63;99719.53;16146597;19;130493;-43
2022/04/07 23:02:45;;;;;;;1.38;0.38;;;;;;;19.16;32.61;99742.56;16144810;19;130199;-42
2022/04/07 23:08:07;;;;;;;0.65;0.30;;;;;;;19.13;32.36;99748.66;16141432;19;129733;-48
2022/04/07 23:13:29;;;;;;;1.17;0.40;;;;;;;19.11;32.18;99751.72;16143282;19;129591;-42
2022/04/07 23:18:51;;;;;;;3.20;0.45;;;;;;;19.07;32.16;99762.53;16143018;19;129695;-47
2022/04/07 23:24:13;;;;;;;2.67;0.50;;;;;;;19.04;32.36;99771.41;16144883;19;132133;-46
2022/04/07 23:29:35;;;;;;;1.08;0.40;;;;;;;19.02;32.70;99781.94;16143981;19;129061;-45
2022/04/07 23:34:57;;;;;;;0.77;0.32;;;;;;;19.00;32.23;99789.69;16138991;19;129893;-47
2022/04/07 23:40:19;;;;;;;1.00;0.30;;;;;;;18.98;32.46;99803.00;16141556;19;129361;-46
2022/04/07 23:45:40;;;;;;;0.50;0.17;;;;;;;18.97;32.70;99800.50;16141416;19;129297;-43
2022/04/07 23:51:02;;;;;;;0.57;0.28;;;;;;;18.94;32.74;99807.44;16140156;19;129721;-47
2022/04/07 23:56:24;;;;;;;0.77;0.40;;;;;;;18.95;32.47;99808.25;16137283;19;130068;-43
